Time;durP1;ratioP1;P1;durP2;ratioP2;P2;SDS_P1;SDS_P2;PMS_P1;PMS_P2;Temp;Humidity;BMP_temperature;BMP_pressure;BME280_temperature;BME280_humidity;BME280_pressure;Samples;Min_cycle;Max_cycle;Signal;HPM_P1;HPM_P2
2022/02/19 00:00:26;;;;;;;16.40;2.97;;;6.20;99.90;;;;;;4948674;28;20034;-89
2022/02/19 00:03:13;;;;;;;16.80;2.55;;;6.30;99.90;;;;;;4933952;28;20343;-90
2022/02/19 00:05:45;;;;;;;18.85;2.53;;;6.20;99.90;;;;;;4928735;28;20081;-87
2022/02/19 00:08:14;;;;;;;21.48;2.75;;;6.30;99.90;;;;;;4945265;28;20426;-90
2022/02/19 00:10:48;;;;;;;19.13;2.92;;;6.20;99.90;;;;;;4960270;28;20130;-88
2022/02/19 00:13:40;;;;;;;13.52;2.70;;;6.20;99.90;;;;;;4935290;28;20077;-89
2022/02/19 00:16:12;;;;;;;11.85;2.63;;;6.20;99.90;;;;;;4944806;28;20054;-90
2022/02/19 00:18:38;;;;;;;13.55;2.67;;;6.10;99.90;;;;;;4931934;28;20070;-89
2022/02/19 00:21:04;;;;;;;17.88;4.10;;;6.10;99.90;;;;;;4934921;28;20394;-86
2022/02/19 00:23:30;;;;;;;21.77;3.20;;;6.00;99.90;;;;;;4933135;28;20497;-87
2022/02/19 00:25:57;;;;;;;23.48;3.17;;;6.00;99.90;;;;;;4926548;28;20147;-88
2022/02/19 00:28:36;;;;;;;16.58;2.80;;;5.90;99.90;;;;;;4944770;28;20074;-90
2022/02/19 00:31:02;;;;;;;19.77;3.05;;;5.80;99.90;;;;;;4930445;28;20112;-87
2022/02/19 00:33:29;;;;;;;19.52;3.28;;;5.80;99.90;;;;;;4947878;28;20054;-89
2022/02/19 00:48:01;;;;;;;22.88;3.85;;;5.80;99.90;;;;;;4964364;28;20041;-91
2022/02/19 00:50:27;;;;;;;17.50;2.78;;;5.80;99.90;;;;;;4943869;28;20061;-86
2022/02/19 00:52:55;;;;;;;25.48;3.75;;;5.90;99.90;;;;;;4948133;28;20046;-89
2022/02/19 00:55:22;;;;;;;22.67;3.05;;;5.90;99.90;;;;;;4934971;28;20035;-88
2022/02/19 00:57:48;;;;;;;21.20;2.85;;;5.90;99.90;;;;;;4930436;28;20031;-89
2022/02/19 01:00:18;;;;;;;20.10;3.38;;;5.90;99.90;;;;;;4932155;28;20510;-88
2022/02/19 01:02:44;;;;;;;20.60;3.45;;;5.90;99.90;;;;;;4945451;28;20057;-90
2022/02/19 01:05:10;;;;;;;21.70;3.47;;;5.80;99.90;;;;;;4930308;28;20593;-90
2022/02/19 01:07:42;;;;;;;20.60;3.13;;;5.80;99.90;;;;;;4945724;28;20046;-89
2022/02/19 01:10:14;;;;;;;16.10;3.08;;;5.70;99.90;;;;;;4948830;28;20328;-88
2022/02/19 01:12:51;;;;;;;23.20;3.28;;;5.60;99.90;;;;;;4961397;28;20581;-90
2022/02/19 01:15:33;;;;;;;;;;;;;;;;;;;;;
2022/02/19 01:17:59;;;;;;;20.77;3.50;;;5.50;99.90;;;;;;4945767;28;20401;-87
2022/02/19 01:20:25;;;;;;;20.65;3.22;;;5.40;99.90;;;;;;4930930;28;20043;-88
2022/02/19 01:22:51;;;;;;;29.60;4.43;;;5.20;99.90;;;;;;4945207;28;20690;-89
2022/02/19 01:25:17;;;;;;;20.75;3.70;;;5.10;99.90;;;;;;4931360;28;20031;-90
2022/02/19 01:27:43;;;;;;;29.35;3.80;;;4.90;99.90;;;;;;4930266;28;20077;-88
2022/02/19 01:30:09;;;;;;;19.73;3.08;;;4.70;99.90;;;;;;4936024;28;20050;-89
2022/02/19 01:32:35;;;;;;;36.80;4.05;;;4.40;99.90;;;;;;4941639;28;20043;-89
2022/02/19 01:35:02;;;;;;;23.73;4.15;;;4.30;99.90;;;;;;4942922;28;20086;-88
2022/02/19 01:37:28;;;;;;;33.38;4.07;;;4.20;99.90;;;;;;4944009;28;20043;-89
2022/02/19 01:39:53;;;;;;;25.13;3.78;;;4.10;99.90;;;;;;4949824;28;20195;-89
2022/02/19 01:42:19;;;;;;;24.67;3.35;;;4.10;99.90;;;;;;4945781;28;20050;-89
2022/02/19 01:44:47;;;;;;;32.80;3.55;;;4.00;99.90;;;;;;4932706;28;20066;-87
2022/02/19 01:47:15;;;;;;;27.27;3.95;;;4.00;99.90;;;;;;4944288;28;20081;-88
2022/02/19 01:49:40;;;;;;;31.85;3.92;;;4.00;99.90;;;;;;4951425;28;20502;-89
2022/02/19 01:52:07;;;;;;;36.38;4.38;;;4.10;99.90;;;;;;4913551;28;20034;-87
2022/02/19 01:54:33;;;;;;;34.35;4.05;;;4.00;99.90;;;;;;4945262;28;20365;-88
2022/02/19 01:57:00;;;;;;;33.35;4.40;;;4.10;99.90;;;;;;4944678;28;20138;-90
2022/02/19 01:59:26;;;;;;;29.63;4.55;;;4.10;99.90;;;;;;4943258;28;20125;-89
2022/02/19 02:01:52;;;;;;;38.22;3.92;;;4.10;99.90;;;;;;4939834;28;20073;-87
2022/02/19 02:04:17;;;;;;;25.30;3.42;;;4.10;99.90;;;;;;4947016;28;20038;-90
2022/02/19 02:06:43;;;;;;;25.08;3.35;;;4.10;99.90;;;;;;4927720;28;20315;-87
2022/02/19 02:09:10;;;;;;;16.40;2.70;;;4.10;99.90;;;;;;4916411;28;20533;-90
2022/02/19 02:11:37;;;;;;;18.80;3.17;;;4.10;99.90;;;;;;4925225;28;20043;-90
2022/02/19 02:14:02;;;;;;;17.27;2.20;;;4.10;99.90;;;;;;4918095;28;20527;-88
2022/02/19 02:16:39;;;;;;;18.77;2.80;;;4.10;99.90;;;;;;4949973;28;20121;-88
2022/02/19 02:19:06;;;;;;;19.75;2.80;;;4.00;99.90;;;;;;4949495;28;20066;-89
2022/02/19 02:21:32;;;;;;;12.93;2.17;;;4.00;99.90;;;;;;4943030;28;20525;-89
2022/02/19 02:23:58;;;;;;;21.17;2.97;;;4.00;99.90;;;;;;4935046;28;20467;-89
2022/02/19 02:26:24;;;;;;;19.83;3.03;;;4.00;99.90;;;;;;4945420;28;20101;-89
2022/02/19 02:28:51;;;;;;;13.65;2.40;;;4.00;99.90;;;;;;4949670;28;20038;-89
2022/02/19 02:31:17;;;;;;;25.45;2.75;;;4.00;99.90;;;;;;4928276;28;20035;-87
2022/02/19 02:33:43;;;;;;;18.85;2.42;;;4.00;99.90;;;;;;4932989;28;20111;-89
2022/02/19 02:36:09;;;;;;;14.27;2.20;;;4.00;99.90;;;;;;4941878;28;20539;-88
2022/02/19 02:38:35;;;;;;;14.75;2.83;;;4.00;99.90;;;;;;4928431;28;20101;-89
2022/02/19 02:41:04;;;;;;;16.23;2.33;;;4.00;99.90;;;;;;4923136;28;20035;-87
2022/02/19 02:43:30;;;;;;;12.43;1.88;;;4.00;99.90;;;;;;4962310;28;20038;-87
2022/02/19 02:45:55;;;;;;;15.35;2.33;;;4.00;99.90;;;;;;4948288;28;20066;-90
2022/02/19 02:48:21;;;;;;;9.68;1.65;;;4.00;99.90;;;;;;4943558;28;20126;-88
2022/02/19 02:50:47;;;;;;;12.70;1.40;;;4.00;99.90;;;;;;4949842;28;20475;-87
2022/02/19 02:53:13;;;;;;;16.63;1.75;;;4.00;99.90;;;;;;4948223;28;20078;-87
2022/02/19 02:55:39;;;;;;;12.70;1.55;;;4.00;99.90;;;;;;4931914;28;20109;-88
2022/02/19 02:58:05;;;;;;;8.57;1.23;;;4.00;99.90;;;;;;4950785;28;20043;-91
2022/02/19 03:00:31;;;;;;;9.60;1.70;;;4.00;99.90;;;;;;4930771;28;20049;-92
2022/02/19 03:02:56;;;;;;;4.80;1.40;;;4.00;99.90;;;;;;4948872;28;20157;-87
2022/02/19 03:05:25;;;;;;;12.10;1.50;;;4.00;99.90;;;;;;4927098;28;20047;-89
2022/02/19 03:07:51;;;;;;;9.95;1.23;;;4.00;99.90;;;;;;4933485;28;20500;-89
2022/02/19 03:10:18;;;;;;;10.43;1.40;;;4.00;99.90;;;;;;4948581;28;20039;-89
2022/02/19 03:12:45;;;;;;;9.80;1.40;;;4.00;99.90;;;;;;4949869;28;20043;-89
2022/02/19 03:15:15;;;;;;;14.40;1.83;;;4.00;99.90;;;;;;4953641;28;20505;-87
2022/02/19 03:17:41;;;;;;;13.02;1.67;;;4.00;99.90;;;;;;4930119;28;20038;-90
2022/02/19 03:20:08;;;;;;;18.02;2.13;;;3.90;99.90;;;;;;4929620;28;20062;-89
2022/02/19 03:22:37;;;;;;;15.30;2.97;;;4.00;99.90;;;;;;4932747;28;20042;-90
2022/02/19 03:25:03;;;;;;;20.27;2.53;;;3.90;99.90;;;;;;4944458;28;20035;-89
2022/02/19 03:27:29;;;;;;;16.85;2.30;;;4.00;99.90;;;;;;4947404;28;20050;-88
2022/02/19 03:29:55;;;;;;;21.27;2.30;;;3.90;99.90;;;;;;4932845;28;20039;-86
2022/02/19 03:32:21;;;;;;;15.23;2.85;;;3.90;99.90;;;;;;4932951;28;20581;-92
2022/02/19 03:34:46;;;;;;;17.80;2.70;;;4.00;99.90;;;;;;4916025;28;20047;-87
2022/02/19 03:37:12;;;;;;;23.40;3.10;;;3.90;99.90;;;;;;4930117;28;20133;-89
2022/02/19 03:39:38;;;;;;;23.88;3.00;;;3.90;99.90;;;;;;4930775;28;20553;-90
2022/02/19 03:42:04;;;;;;;16.92;2.50;;;3.90;99.90;;;;;;4942767;28;20048;-91
2022/02/19 03:44:30;;;;;;;24.90;3.95;;;3.90;99.90;;;;;;4924681;28;20031;-87
2022/02/19 03:46:56;;;;;;;30.23;3.70;;;3.90;99.90;;;;;;4935453;28;20113;-89
2022/02/19 03:49:22;;;;;;;23.52;3.75;;;3.90;99.90;;;;;;4938650;28;20046;-91
2022/02/19 03:51:47;;;;;;;35.78;4.30;;;3.90;99.90;;;;;;4916588;28;20035;-87
2022/02/19 03:54:13;;;;;;;43.33;4.80;;;3.90;99.90;;;;;;4930568;28;20449;-86
2022/02/19 03:56:45;;;;;;;24.58;3.53;;;4.00;99.90;;;;;;4927588;28;20047;-90
2022/02/19 03:59:14;;;;;;;24.83;3.33;;;4.00;99.90;;;;;;4928377;28;20419;-89
2022/02/19 04:01:44;;;;;;;18.83;2.90;;;4.00;99.90;;;;;;4933987;28;20129;-89
2022/02/19 04:04:10;;;;;;;24.27;2.85;;;3.90;99.90;;;;;;4931238;28;20039;-89
2022/02/19 04:06:36;;;;;;;16.80;2.70;;;3.80;99.90;;;;;;4947665;28;21426;-87
2022/02/19 04:09:04;;;;;;;22.20;2.58;;;3.70;99.90;;;;;;4949637;28;20034;-87
2022/02/19 04:11:30;;;;;;;24.50;2.58;;;3.60;99.90;;;;;;4935333;28;20445;-87
2022/02/19 04:13:56;;;;;;;22.85;2.92;;;3.60;99.90;;;;;;4950212;28;20061;-88
2022/02/19 04:16:22;;;;;;;24.42;3.58;;;3.60;99.90;;;;;;4922254;28;20486;-89
2022/02/19 04:18:48;;;;;;;19.90;2.60;;;3.60;99.90;;;;;;4935992;28;20038;-88
2022/02/19 04:21:16;;;;;;;19.55;3.25;;;3.60;99.90;;;;;;4935099;28;20046;-92
2022/02/19 04:23:42;;;;;;;23.08;2.30;;;3.60;99.90;;;;;;4930757;28;20133;-92
2022/02/19 04:26:08;;;;;;;14.70;2.13;;;3.60;99.90;;;;;;4943542;28;20387;-89
2022/02/19 04:28:37;;;;;;;17.02;1.95;;;3.50;99.90;;;;;;4929242;28;20047;-87
2022/02/19 04:31:02;;;;;;;8.30;1.35;;;3.50;99.90;;;;;;4925266;28;20039;-88
2022/02/19 04:33:28;;;;;;;11.25;1.60;;;3.40;99.90;;;;;;4914484;28;20117;-89
2022/02/19 04:35:54;;;;;;;7.43;1.35;;;3.40;99.90;;;;;;4913736;28;20035;-88
2022/02/19 04:38:23;;;;;;;14.52;2.28;;;3.30;99.90;;;;;;4914365;28;20035;-87
2022/02/19 04:40:48;;;;;;;10.93;1.70;;;3.30;99.90;;;;;;4932335;28;20058;-88
2022/02/19 04:43:14;;;;;;;17.48;2.20;;;3.30;99.90;;;;;;4943969;28;20043;-87
2022/02/19 04:45:40;;;;;;;13.23;2.05;;;3.30;99.90;;;;;;4930193;28;20470;-87
2022/02/19 04:48:06;;;;;;;14.35;2.55;;;3.30;99.90;;;;;;4930080;28;20050;-90
2022/02/19 04:50:31;;;;;;;20.27;2.67;;;3.30;99.90;;;;;;4918205;28;20046;-89
2022/02/19 04:52:58;;;;;;;27.00;2.97;;;3.30;99.90;;;;;;4917253;28;20474;-87
2022/02/19 04:55:23;;;;;;;21.42;3.00;;;3.20;99.90;;;;;;4937527;28;20051;-88
2022/02/19 04:57:49;;;;;;;26.17;4.32;;;3.20;99.90;;;;;;4948870;28;20030;-90
2022/02/19 05:00:19;;;;;;;20.27;2.78;;;3.30;99.90;;;;;;4917078;28;20034;-88
2022/02/19 05:02:45;;;;;;;28.25;3.30;;;3.30;99.90;;;;;;4944979;28;20298;-89
2022/02/19 05:05:11;;;;;;;31.50;4.47;;;3.30;99.90;;;;;;4909639;28;20036;-87
2022/02/19 05:07:37;;;;;;;29.27;3.67;;;3.30;99.90;;;;;;4929816;28;20050;-88
2022/02/19 05:10:04;;;;;;;31.65;4.25;;;3.40;99.90;;;;;;4946564;28;20117;-88
2022/02/19 05:12:30;;;;;;;30.35;3.50;;;3.40;99.90;;;;;;4929871;28;20038;-88
2022/02/19 05:14:56;;;;;;;28.67;4.35;;;3.40;99.90;;;;;;4946449;28;20039;-89
2022/02/19 05:17:22;;;;;;;40.88;5.53;;;3.40;99.90;;;;;;4945600;28;20035;-90
2022/02/19 05:19:48;;;;;;;35.50;3.88;;;3.40;99.90;;;;;;4930763;28;20468;-88
2022/02/19 05:22:13;;;;;;;39.30;5.18;;;3.40;99.90;;;;;;4947234;28;20502;-87
2022/02/19 05:24:39;;;;;;;27.85;3.95;;;3.50;99.90;;;;;;4938280;28;20030;-86
2022/02/19 05:27:05;;;;;;;38.58;4.85;;;3.40;99.90;;;;;;4918376;28;20526;-89
2022/02/19 05:29:31;;;;;;;35.95;4.30;;;3.50;99.90;;;;;;4916400;28;20036;-87
2022/02/19 05:31:57;;;;;;;28.42;3.92;;;3.50;99.90;;;;;;4928911;28;20038;-88
2022/02/19 05:34:22;;;;;;;29.63;4.45;;;3.50;99.90;;;;;;4930087;28;20431;-89
2022/02/19 05:36:48;;;;;;;26.67;3.63;;;3.50;99.90;;;;;;4928752;28;20190;-89
2022/02/19 05:39:14;;;;;;;35.75;3.85;;;3.60;99.90;;;;;;4916062;28;20117;-89
2022/02/19 05:41:40;;;;;;;29.77;3.60;;;3.60;99.90;;;;;;4927011;28;20050;-89
2022/02/19 05:44:06;;;;;;;22.35;3.10;;;3.60;99.90;;;;;;4933534;28;20523;-89
2022/02/19 05:46:34;;;;;;;30.27;3.50;;;3.50;99.90;;;;;;4934770;28;20137;-88
2022/02/19 05:49:01;;;;;;;29.05;4.00;;;3.60;99.90;;;;;;4943899;28;20121;-88
2022/02/19 05:51:27;;;;;;;21.52;3.58;;;3.60;99.90;;;;;;4944699;28;20434;-89
2022/02/19 05:53:53;;;;;;;33.88;4.35;;;3.50;99.90;;;;;;4919984;28;20035;-89
2022/02/19 05:56:20;;;;;;;28.02;3.65;;;3.50;99.90;;;;;;4939794;28;20509;-89
2022/02/19 05:58:45;;;;;;;22.50;3.85;;;3.50;99.90;;;;;;4948617;28;20121;-89
2022/02/19 06:01:12;;;;;;;22.88;2.88;;;3.60;99.90;;;;;;4911982;28;20315;-88
2022/02/19 06:03:40;;;;;;;33.45;3.05;;;3.60;99.90;;;;;;4935534;28;20046;-87
2022/02/19 06:06:06;;;;;;;23.63;4.05;;;3.60;99.90;;;;;;4930013;28;20043;-88
2022/02/19 06:08:32;;;;;;;23.70;3.03;;;3.60;99.90;;;;;;4930044;28;20057;-87
2022/02/19 06:10:58;;;;;;;24.10;3.40;;;3.60;99.90;;;;;;4927292;28;20043;-87
2022/02/19 06:13:24;;;;;;;22.77;3.00;;;3.50;99.90;;;;;;4930353;28;20055;-90
2022/02/19 06:15:50;;;;;;;20.90;3.33;;;3.50;99.90;;;;;;4920975;28;20129;-87
2022/02/19 06:18:16;;;;;;;31.00;3.15;;;3.40;99.90;;;;;;4950929;28;20023;-89
2022/02/19 06:20:42;;;;;;;27.80;3.42;;;3.30;99.90;;;;;;4949136;28;20045;-88
2022/02/19 06:23:08;;;;;;;19.75;2.63;;;3.30;99.90;;;;;;4920569;28;20486;-89
2022/02/19 06:25:34;;;;;;;27.30;2.63;;;3.30;99.90;;;;;;4936780;28;20049;-89
2022/02/19 06:28:00;;;;;;;19.00;3.58;;;3.20;99.90;;;;;;4917586;28;20487;-88
2022/02/19 06:30:26;;;;;;;29.65;3.03;;;3.30;99.90;;;;;;4933917;28;20038;-87
2022/02/19 06:32:52;;;;;;;26.95;3.40;;;3.20;99.90;;;;;;4930354;28;20050;-88
2022/02/19 06:35:18;;;;;;;30.25;4.03;;;3.20;99.90;;;;;;4948091;28;20419;-88
2022/02/19 06:37:46;;;;;;;20.13;2.95;;;3.20;99.90;;;;;;4932433;28;20078;-89
2022/02/19 06:40:14;;;;;;;27.17;2.85;;;3.20;99.90;;;;;;4949266;28;20046;-90
2022/02/19 06:42:42;;;;;;;25.55;3.25;;;3.10;99.90;;;;;;4964506;28;20039;-89
2022/02/19 06:45:09;;;;;;;30.58;3.17;;;3.10;99.90;;;;;;4952510;28;20066;-90
2022/02/19 06:47:36;;;;;;;20.13;2.58;;;3.10;99.90;;;;;;4949175;28;20477;-89
2022/02/19 06:50:07;;;;;;;20.65;3.25;;;3.10;99.90;;;;;;4947153;28;20461;-88
2022/02/19 06:52:33;;;;;;;15.95;2.38;;;3.00;99.90;;;;;;4932571;28;20282;-87
2022/02/19 06:54:59;;;;;;;25.30;2.58;;;3.00;99.90;;;;;;4928540;28;20417;-88
2022/02/19 06:57:25;;;;;;;18.65;2.88;;;3.00;99.90;;;;;;4947074;28;20133;-87
2022/02/19 06:59:51;;;;;;;17.75;2.58;;;3.00;99.90;;;;;;4947832;28;20045;-88
2022/02/19 07:02:18;;;;;;;23.45;3.42;;;3.00;99.90;;;;;;4929426;28;20050;-88
2022/02/19 07:04:45;;;;;;;17.98;2.70;;;3.10;99.90;;;;;;4953495;28;20031;-87
2022/02/19 07:07:15;;;;;;;19.58;3.42;;;3.10;99.90;;;;;;4936117;28;20042;-88
2022/02/19 07:09:41;;;;;;;19.50;3.08;;;3.10;99.90;;;;;;4932239;28;20047;-88
2022/02/19 07:12:08;;;;;;;17.70;2.80;;;3.00;99.90;;;;;;4931246;28;20041;-88
2022/02/19 07:14:34;;;;;;;19.67;2.88;;;3.10;99.90;;;;;;4947372;28;20043;-89
2022/02/19 07:17:04;;;;;;;20.90;3.10;;;3.10;99.90;;;;;;4943828;28;20410;-88
2022/02/19 07:19:37;;;;;;;18.20;2.53;;;3.10;99.90;;;;;;4949450;28;20043;-89
2022/02/19 07:22:03;;;;;;;27.77;3.47;;;3.10;99.90;;;;;;4962563;28;20034;-90
2022/02/19 07:24:29;;;;;;;20.02;2.90;;;3.20;99.90;;;;;;4961159;28;20053;-88
2022/02/19 07:26:58;;;;;;;26.33;3.42;;;3.20;99.90;;;;;;4916652;28;20034;-89
2022/02/19 07:29:24;;;;;;;19.27;2.63;;;3.30;99.90;;;;;;4946463;28;20066;-87
2022/02/19 07:31:50;;;;;;;20.52;2.70;;;3.40;99.90;;;;;;4949482;28;20039;-89
2022/02/19 07:34:17;;;;;;;23.67;2.55;;;3.50;99.90;;;;;;4948966;28;20113;-87
2022/02/19 07:36:42;;;;;;;28.25;3.40;;;3.40;99.90;;;;;;4929754;28;20396;-88
2022/02/19 07:39:09;;;;;;;18.80;2.80;;;3.30;99.90;;;;;;4944399;28;20685;-87
2022/02/19 07:41:38;;;;;;;27.17;2.83;;;3.30;99.90;;;;;;4932174;28;20043;-89
2022/02/19 07:44:07;;;;;;;22.60;2.95;;;3.30;99.90;;;;;;4941345;28;20133;-89
2022/02/19 07:46:33;;;;;;;21.92;3.22;;;3.20;99.90;;;;;;4932331;28;20039;-89
2022/02/19 07:58:18;;;;;;;21.08;3.58;;;3.20;99.90;;;;;;4950432;28;20150;-88
2022/02/19 08:00:02;;;;;;;23.02;2.85;;;3.30;99.90;;;;;;4949640;28;20134;-89
2022/02/19 08:02:28;;;;;;;18.20;2.40;;;3.40;99.90;;;;;;4964814;28;20545;-90
2022/02/19 08:04:54;;;;;;;17.33;2.50;;;3.50;99.90;;;;;;4932244;28;20045;-89
2022/02/19 08:07:20;;;;;;;22.65;2.95;;;3.50;99.90;;;;;;4931765;28;20110;-89
2022/02/19 08:09:45;;;;;;;24.75;2.88;;;3.60;99.90;;;;;;4918512;28;20618;-89
2022/02/19 08:12:11;;;;;;;21.67;2.40;;;3.60;99.90;;;;;;4935614;28;20039;-89
2022/02/19 08:14:41;;;;;;;21.92;3.50;;;3.70;99.90;;;;;;4929974;28;20054;-90
2022/02/19 08:17:17;;;;;;;21.60;3.60;;;3.70;99.90;;;;;;4928318;28;20039;-90
2022/02/19 08:19:46;;;;;;;20.65;2.72;;;3.80;99.90;;;;;;4947203;28;20035;-90
2022/02/19 08:22:11;;;;;;;15.95;2.08;;;3.90;99.90;;;;;;4949841;28;20038;-90
2022/02/19 08:24:40;;;;;;;17.45;2.33;;;3.90;99.90;;;;;;4925131;28;20328;-92
2022/02/19 08:27:09;;;;;;;13.38;2.38;;;3.90;99.90;;;;;;4965187;28;20035;-89
2022/02/19 08:29:36;;;;;;;23.00;2.60;;;4.00;99.90;;;;;;4948560;28;20047;-91
2022/02/19 08:32:05;;;;;;;17.65;2.40;;;4.00;99.90;;;;;;4945454;28;20038;-90
2022/02/19 08:34:33;;;;;;;24.48;3.38;;;4.00;99.90;;;;;;4945039;28;20070;-90
2022/02/19 08:36:59;;;;;;;18.83;2.30;;;4.00;99.90;;;;;;4946924;28;20111;-91
2022/02/19 08:39:31;;;;;;;19.20;2.67;;;4.00;99.90;;;;;;4930981;28;20117;-91
2022/02/19 08:41:56;;;;;;;12.15;2.45;;;4.00;99.90;;;;;;4945225;28;20129;-90
2022/02/19 08:44:53;;;;;;;;;;;;;;;;;;;;;
2022/02/19 08:47:33;;;;;;;13.32;1.80;;;3.90;99.90;;;;;;4965589;28;20047;-91
2022/02/19 08:50:03;;;;;;;8.57;1.52;;;3.70;99.90;;;;;;4945635;28;20508;-89
2022/02/19 08:52:37;;;;;;;11.77;1.95;;;3.70;99.90;;;;;;4931733;28;20051;-91
2022/02/19 08:55:38;;;;;;;;;;;;;;;;;;;;;
2022/02/19 08:58:08;;;;;;;15.95;2.17;;;3.60;99.90;;;;;;4960960;28;20035;-91
2022/02/19 09:00:35;;;;;;;17.02;2.40;;;3.70;99.90;;;;;;4946107;28;20038;-91
2022/02/19 09:03:00;;;;;;;20.00;2.55;;;3.70;99.90;;;;;;4946291;28;20034;-88
2022/02/19 09:05:26;;;;;;;17.80;2.20;;;3.60;99.90;;;;;;4935417;28;20042;-89
2022/02/19 09:07:53;;;;;;;15.23;2.22;;;3.60;99.90;;;;;;4946028;28;20031;-87
2022/02/19 09:10:19;;;;;;;19.52;3.05;;;3.60;99.90;;;;;;4950541;28;20042;-90
2022/02/19 09:12:47;;;;;;;13.70;2.38;;;3.80;99.90;;;;;;4949007;28;20227;-90
2022/02/19 09:15:24;;;;;;;15.27;2.35;;;4.00;99.90;;;;;;4946021;28;20129;-90
2022/02/19 09:17:51;;;;;;;11.95;2.35;;;4.20;99.90;;;;;;4942876;28;20908;-90
2022/02/19 09:20:19;;;;;;;23.63;2.53;;;4.40;99.90;;;;;;4943939;28;20150;-90
2022/02/19 09:22:46;;;;;;;14.82;2.25;;;4.40;99.90;;;;;;4947060;28;20147;-92
2022/02/19 09:25:12;;;;;;;22.73;3.38;;;4.50;99.90;;;;;;4942153;28;20117;-89
2022/02/19 09:27:39;;;;;;;14.00;2.45;;;4.60;99.90;;;;;;4928289;28;21564;-89
2022/02/19 09:30:06;;;;;;;16.90;2.63;;;4.70;99.90;;;;;;4927093;28;20130;-90
2022/02/19 09:32:32;;;;;;;18.55;3.33;;;4.80;99.90;;;;;;4912089;28;20085;-89
2022/02/19 09:34:58;;;;;;;15.25;1.90;;;4.90;99.90;;;;;;4959613;28;20491;-89
2022/02/19 09:39:57;;;;;;;19.92;2.03;;;5.10;99.90;;;;;;4960476;28;20059;-90
2022/02/19 09:42:24;;;;;;;19.98;2.95;;;5.20;99.90;;;;;;4933886;28;20500;-89
2022/02/19 09:44:52;;;;;;;16.67;2.05;;;5.20;99.90;;;;;;4950366;28;20102;-89
2022/02/19 09:47:25;;;;;;;20.20;3.90;;;5.30;99.90;;;;;;4945945;28;20642;-91
2022/02/19 09:49:51;;;;;;;16.10;2.38;;;5.40;99.90;;;;;;4923268;29;20122;-89
2022/02/19 09:52:17;;;;;;;13.32;2.20;;;5.40;99.90;;;;;;4926623;28;20138;-91
2022/02/19 09:54:43;;;;;;;15.68;2.33;;;5.50;99.90;;;;;;4929839;29;20118;-90
2022/02/19 09:57:08;;;;;;;16.48;2.00;;;5.50;99.90;;;;;;4929886;29;20058;-89
2022/02/19 09:59:34;;;;;;;12.95;2.10;;;5.50;99.90;;;;;;4926220;29;20122;-89
2022/02/19 10:02:03;;;;;;;17.85;2.38;;;5.40;99.90;;;;;;4899227;28;20042;-88
2022/02/19 10:04:30;;;;;;;19.48;2.70;;;5.30;99.90;;;;;;4931351;29;20050;-87
2022/02/19 10:07:20;;;;;;;18.73;2.88;;;5.30;99.90;;;;;;4909541;28;20062;-88
2022/02/19 10:09:49;;;;;;;21.52;3.08;;;5.30;99.90;;;;;;4931987;29;20043;-88
2022/02/19 10:12:16;;;;;;;21.50;3.33;;;5.30;99.90;;;;;;4934617;29;20042;-88
2022/02/19 10:14:44;;;;;;;24.27;2.85;;;5.30;99.90;;;;;;4948419;29;20071;-87
2022/02/19 10:17:18;;;;;;;16.35;2.10;;;5.40;99.90;;;;;;4929953;29;20384;-87
2022/02/19 10:20:04;;;;;;;18.75;2.38;;;5.50;99.90;;;;;;4916777;29;20160;-88
2022/02/19 10:22:41;;;;;;;19.42;2.72;;;5.50;99.90;;;;;;4920808;29;20034;-87
2022/02/19 10:25:14;;;;;;;13.27;2.40;;;5.60;99.90;;;;;;4927826;28;20537;-90
2022/02/19 10:27:46;;;;;;;24.25;2.70;;;5.60;99.90;;;;;;4932515;28;20039;-88
2022/02/19 10:30:14;;;;;;;18.70;2.55;;;5.60;99.90;;;;;;4934823;29;20035;-90
2022/02/19 10:32:56;;;;;;;15.65;3.13;;;5.60;99.90;;;;;;4949900;28;20043;-87
2022/02/19 10:35:38;;;;;;;18.40;2.92;;;5.60;99.90;;;;;;4947578;28;20039;-86
2022/02/19 10:38:15;;;;;;;18.67;2.78;;;5.60;99.90;;;;;;4929127;28;20570;-87
2022/02/19 10:40:57;;;;;;;16.27;2.88;;;5.70;99.90;;;;;;4945814;28;20884;-87
2022/02/19 10:43:30;;;;;;;13.43;2.10;;;5.60;99.90;;;;;;4896240;29;20039;-87
2022/02/19 10:46:04;;;;;;;16.55;2.58;;;5.80;99.90;;;;;;4945182;28;20066;-88
2022/02/19 10:48:30;;;;;;;20.75;3.50;;;5.90;99.90;;;;;;4947267;28;20047;-89
2022/02/19 10:51:13;;;;;;;16.95;2.67;;;5.90;99.90;;;;;;4946930;28;20484;-87
2022/02/19 10:53:43;;;;;;;24.33;2.90;;;6.00;99.90;;;;;;4945598;29;20047;-88
2022/02/19 10:56:14;;;;;;;15.75;2.10;;;6.10;99.90;;;;;;4918079;29;20078;-87
2022/02/19 10:59:05;;;;;;;15.05;2.20;;;6.00;99.90;;;;;;4948016;28;20035;-88
2022/02/19 11:01:49;;;;;;;17.10;2.53;;;5.90;99.90;;;;;;4927382;28;20054;-88
2022/02/19 11:04:19;;;;;;;22.90;2.90;;;5.80;99.90;;;;;;4925351;29;20529;-88
2022/02/19 11:06:49;;;;;;;15.25;2.67;;;5.80;99.90;;;;;;4916306;29;20043;-89
2022/02/19 11:09:20;;;;;;;14.80;2.17;;;5.70;99.90;;;;;;4915920;28;20054;-87
2022/02/19 11:11:46;;;;;;;16.70;2.30;;;5.60;99.90;;;;;;4918550;29;20043;-87
2022/02/19 11:14:14;;;;;;;14.73;2.33;;;5.60;99.90;;;;;;4933947;28;20039;-88
2022/02/19 11:16:44;;;;;;;14.02;2.75;;;5.60;99.90;;;;;;4932612;29;20142;-89
2022/02/19 11:19:09;;;;;;;22.20;2.67;;;5.50;99.90;;;;;;4911062;29;20063;-86
2022/02/19 11:21:42;;;;;;;18.05;2.28;;;5.60;99.90;;;;;;4918693;29;20098;-89
2022/02/19 11:24:14;;;;;;;;;;;5.80;99.90;;;;;;4932499;28;20071;-90
2022/02/19 11:26:42;;;;;;;17.98;2.85;;;6.10;99.90;;;;;;4944968;28;20412;-86
2022/02/19 11:29:22;;;;;;;17.10;2.67;;;6.20;99.90;;;;;;4925849;28;20039;-88
2022/02/19 11:31:49;;;;;;;12.90;2.10;;;6.10;99.90;;;;;;4925469;29;20048;-86
2022/02/19 11:34:20;;;;;;;10.10;1.77;;;6.00;99.90;;;;;;4914077;28;20043;-87
2022/02/19 11:36:46;;;;;;;13.55;2.40;;;5.90;99.90;;;;;;4908888;28;20047;-88
2022/02/19 11:39:12;;;;;;;14.05;2.50;;;5.90;99.90;;;;;;4893264;29;20142;-88
2022/02/19 11:41:43;;;;;;;17.63;2.05;;;5.90;99.90;;;;;;4917316;28;20058;-88
2022/02/19 11:44:15;;;;;;;10.48;2.38;;;6.00;99.90;;;;;;4944824;28;20130;-87
2022/02/19 11:46:44;;;;;;;15.20;1.63;;;6.20;99.90;;;;;;4927968;29;20073;-89
2022/02/19 11:49:17;;;;;;;13.13;2.00;;;6.30;99.90;;;;;;4912119;28;20035;-88
2022/02/19 11:51:44;;;;;;;14.15;1.95;;;6.40;99.90;;;;;;4920746;29;20793;-88
2022/02/19 11:54:12;;;;;;;14.18;2.38;;;6.20;99.90;;;;;;4929726;29;20070;-89
2022/02/19 11:56:41;;;;;;;15.65;2.20;;;6.20;99.90;;;;;;4932175;29;20039;-93
2022/02/19 11:59:12;;;;;;;13.52;2.03;;;6.00;99.90;;;;;;4907429;29;20102;-89
2022/02/19 12:01:40;;;;;;;19.38;3.35;;;6.00;99.90;;;;;;4922711;29;20126;-88
2022/02/19 12:04:16;;;;;;;11.77;2.05;;;5.90;99.90;;;;;;4929089;28;20167;-90
2022/02/19 12:07:04;;;;;;;16.33;3.03;;;6.00;99.90;;;;;;4929838;29;20043;-89
2022/02/19 12:09:29;;;;;;;19.73;1.98;;;6.10;99.90;;;;;;4928519;29;20046;-89
2022/02/19 12:11:55;;;;;;;15.20;2.03;;;6.40;99.90;;;;;;4912521;29;20043;-89
2022/02/19 12:15:01;;;;;;;15.13;2.35;;;6.60;99.90;;;;;;4928210;29;20043;-90
2022/02/19 12:17:58;;;;;;;18.38;1.92;;;6.70;99.90;;;;;;4928147;29;20137;-88
2022/02/19 12:20:36;;;;;;;14.00;2.58;;;6.70;99.90;;;;;;4925278;28;20056;-89
2022/02/19 12:23:08;;;;;;;13.05;2.05;;;6.60;99.90;;;;;;4925331;29;20055;-88
2022/02/19 12:25:59;;;;;;;13.35;2.42;;;6.60;99.90;;;;;;4944828;28;20138;-90
2022/02/19 12:28:25;;;;;;;13.48;1.85;;;6.60;99.90;;;;;;4946102;28;20494;-89
2022/02/19 12:31:23;;;;;;;16.67;2.38;;;6.80;99.90;;;;;;4913137;29;20047;-87
2022/02/19 12:34:11;;;;;;;14.32;2.08;;;7.10;99.90;;;;;;4926666;28;20051;-88
2022/02/19 12:36:53;;;;;;;12.30;2.33;;;7.40;99.90;;;;;;4927474;28;20043;-88
2022/02/19 12:39:23;;;;;;;17.25;2.28;;;7.70;99.90;;;;;;4927352;29;20438;-89
2022/02/19 12:41:58;;;;;;;15.13;2.15;;;8.00;99.90;;;;;;4916697;29;20062;-87
2022/02/19 12:44:27;;;;;;;12.23;2.03;;;8.20;99.90;;;;;;4922968;29;20086;-90
2022/02/19 12:46:53;;;;;;;14.13;1.98;;;8.40;99.90;;;;;;4921206;28;20474;-90
2022/02/19 12:49:20;;;;;;;15.15;2.10;;;8.50;99.90;;;;;;4910210;28;20035;-88
2022/02/19 12:52:10;;;;;;;9.95;1.90;;;8.70;99.90;;;;;;4929828;29;20081;-90
2022/02/19 12:54:44;;;;;;;14.85;1.92;;;8.60;99.90;;;;;;4930864;29;20498;-88
2022/02/19 12:57:22;;;;;;;14.57;1.77;;;8.80;99.90;;;;;;4928531;28;20078;-89
2022/02/19 12:59:52;;;;;;;8.27;1.60;;;8.80;99.90;;;;;;4909804;29;20057;-90
2022/02/19 13:02:21;;;;;;;13.32;1.90;;;8.60;99.90;;;;;;4925932;29;20035;-92
2022/02/19 13:04:48;;;;;;;13.00;2.42;;;8.40;99.90;;;;;;4930148;29;20383;-90
2022/02/19 13:07:23;;;;;;;14.77;2.15;;;8.10;99.90;;;;;;4911846;28;20048;-90
2022/02/19 13:09:57;;;;;;;15.25;2.17;;;8.00;99.90;;;;;;4927379;29;20471;-91
2022/02/19 13:12:28;;;;;;;18.95;3.03;;;7.80;99.90;;;;;;4927445;28;20055;-91
2022/02/19 13:15:03;;;;;;;11.50;1.83;;;7.60;99.90;;;;;;4927244;28;20129;-90
2022/02/19 13:17:33;;;;;;;14.40;1.95;;;7.50;99.90;;;;;;4942949;28;20047;-89
2022/02/19 13:20:10;;;;;;;19.00;2.40;;;7.40;99.90;;;;;;4937118;28;20054;-89
2022/02/19 13:22:37;;;;;;;12.23;2.20;;;7.30;99.90;;;;;;4933289;28;20035;-89